sensor_id;sensor_type;location;lat;lon;timestamp;pressure;altitude;pressure_sealevel;temperature;humidity
8318;BME280;4196;48.926;8.964;2023-02-20T00:00:00;100169.88;;;7.49;100.00
8318;BME280;4196;48.926;8.964;2023-02-20T00:02:47;100188.88;;;7.53;100.00
8318;BME280;4196;48.926;8.964;2023-02-20T00:05:34;100173.97;;;7.43;100.00
8318;BME280;4196;48.926;8.964;2023-02-20T00:08:21;100186.66;;;7.35;100.00
8318;BME280;4196;48.926;8.964;2023-02-20T00:11:08;100188.13;;;7.27;100.00
8318;BME280;4196;48.926;8.964;2023-02-20T00:13:54;100178.59;;;7.24;100.00
8318;BME280;4196;48.926;8.964;2023-02-20T00:16:41;100178.59;;;7.24;100.00
8318;BME280;4196;48.926;8.964;2023-02-20T00:19:27;100167.94;;;7.11;100.00
8318;BME280;4196;48.926;8.964;2023-02-20T00:22:14;100175.03;;;7.19;100.00
8318;BME280;4196;48.926;8.964;2023-02-20T00:25:01;100182.72;;;7.18;100.00
8318;BME280;4196;48.926;8.964;2023-02-20T00:27:47;100160.75;;;7.00;100.00
8318;BME280;4196;48.926;8.964;2023-02-20T00:30:33;100175.19;;;6.95;100.00
8318;BME280;4196;48.926;8.964;2023-02-20T00:33:20;100175.75;;;6.85;100.00
8318;BME280;4196;48.926;8.964;2023-02-20T00:36:13;100202.50;;;6.90;100.00
8318;BME280;4196;48.926;8.964;2023-02-20T00:38:59;100180.69;;;6.77;100.00
8318;BME280;4196;48.926;8.964;2023-02-20T00:41:46;100199.09;;;6.91;100.00
8318;BME280;4196;48.926;8.964;2023-02-20T00:44:33;100200.88;;;6.92;100.00
8318;BME280;4196;48.926;8.964;2023-02-20T00:47:19;100192.19;;;6.90;100.00
8318;BME280;4196;48.926;8.964;2023-02-20T00:50:07;100201.41;;;6.82;100.00
8318;BME280;4196;48.926;8.964;2023-02-20T00:52:53;100179.22;;;6.59;100.00
8318;BME280;4196;48.926;8.964;2023-02-20T00:55:40;100154.84;;;6.47;100.00
8318;BME280;4196;48.926;8.964;2023-02-20T00:58:26;100207.63;;;6.62;100.00
8318;BME280;4196;48.926;8.964;2023-02-20T01:01:13;100206.50;;;6.53;100.00
8318;BME280;4196;48.926;8.964;2023-02-20T01:04:01;100193.97;;;6.37;100.00
8318;BME280;4196;48.926;8.964;2023-02-20T01:06:48;100207.38;;;6.54;100.00
8318;BME280;4196;48.926;8.964;2023-02-20T01:09:34;100211.66;;;6.53;100.00
8318;BME280;4196;48.926;8.964;2023-02-20T01:12:20;100212.91;;;6.39;100.00
8318;BME280;4196;48.926;8.964;2023-02-20T01:15:07;100183.38;;;6.28;100.00
8318;BME280;4196;48.926;8.964;2023-02-20T01:17:54;100198.66;;;6.23;100.00
8318;BME280;4196;48.926;8.964;2023-02-20T01:20:42;100187.56;;;6.24;100.00
8318;BME280;4196;48.926;8.964;2023-02-20T01:23:29;100197.91;;;6.26;100.00
8318;BME280;4196;48.926;8.964;2023-02-20T01:26:15;100202.84;;;6.20;100.00
8318;BME280;4196;48.926;8.964;2023-02-20T01:29:03;100203.47;;;6.13;100.00
8318;BME280;4196;48.926;8.964;2023-02-20T01:31:50;100185.97;;;6.02;100.00
8318;BME280;4196;48.926;8.964;2023-02-20T01:34:38;100201.78;;;6.15;100.00
8318;BME280;4196;48.926;8.964;2023-02-20T01:37:24;100154.81;;;5.93;100.00
8318;BME280;4196;48.926;8.964;2023-02-20T01:40:16;100193.03;;;6.08;100.00
8318;BME280;4196;48.926;8.964;2023-02-20T01:43:03;100187.19;;;6.14;100.00
8318;BME280;4196;48.926;8.964;2023-02-20T01:45:50;100197.34;;;6.09;100.00
8318;BME280;4196;48.926;8.964;2023-02-20T01:48:37;100188.78;;;6.10;100.00
8318;BME280;4196;48.926;8.964;2023-02-20T01:51:23;100195.78;;;6.14;100.00
8318;BME280;4196;48.926;8.964;2023-02-20T01:54:14;100189.66;;;6.11;100.00
8318;BME280;4196;48.926;8.964;2023-02-20T01:57:04;100179.28;;;6.08;100.00
8318;BME280;4196;48.926;8.964;2023-02-20T01:59:59;100175.78;;;6.05;100.00
8318;BME280;4196;48.926;8.964;2023-02-20T02:02:51;100182.56;;;6.03;100.00
8318;BME280;4196;48.926;8.964;2023-02-20T02:05:45;100182.56;;;6.03;100.00
8318;BME280;4196;48.926;8.964;2023-02-20T02:08:35;100150.97;;;5.82;100.00
8318;BME280;4196;48.926;8.964;2023-02-20T02:11:24;100182.13;;;5.91;100.00
8318;BME280;4196;48.926;8.964;2023-02-20T02:14:10;100172.59;;;5.89;100.00
8318;BME280;4196;48.926;8.964;2023-02-20T02:23:43;100178.69;;;5.67;100.00
8318;BME280;4196;48.926;8.964;2023-02-20T02:27:07;100169.03;;;5.60;100.00
8318;BME280;4196;48.926;8.964;2023-02-20T02:40:09;100172.88;;;5.47;100.00
8318;BME280;4196;48.926;8.964;2023-02-20T02:46:31;100168.97;;;5.58;100.00
8318;BME280;4196;48.926;8.964;2023-02-20T02:52:13;100127.38;;;5.44;100.00
8318;BME280;4196;48.926;8.964;2023-02-20T02:55:26;100154.59;;;5.63;100.00
8318;BME280;4196;48.926;8.964;2023-02-20T02:58:12;100121.50;;;5.47;100.00
8318;BME280;4196;48.926;8.964;2023-02-20T03:01:00;100132.88;;;5.53;100.00
8318;BME280;4196;48.926;8.964;2023-02-20T03:03:48;100134.59;;;5.54;100.00
8318;BME280;4196;48.926;8.964;2023-02-20T03:06:38;100132.34;;;5.38;100.00
8318;BME280;4196;48.926;8.964;2023-02-20T03:09:31;100154.84;;;5.45;100.00
8318;BME280;4196;48.926;8.964;2023-02-20T03:12:21;100123.00;;;5.16;100.00
8318;BME280;4196;48.926;8.964;2023-02-20T03:15:16;100136.25;;;5.28;100.00
8318;BME280;4196;48.926;8.964;2023-02-20T03:18:32;100150.78;;;5.28;100.00
8318;BME280;4196;48.926;8.964;2023-02-20T03:21:22;100126.94;;;5.08;100.00
8318;BME280;4196;48.926;8.964;2023-02-20T03:24:13;100126.28;;;4.67;100.00
8318;BME280;4196;48.926;8.964;2023-02-20T03:27:00;100156.59;;;4.55;100.00
8318;BME280;4196;48.926;8.964;2023-02-20T03:29:51;100138.25;;;4.23;100.00
8318;BME280;4196;48.926;8.964;2023-02-20T03:32:42;100156.84;;;4.18;100.00
8318;BME280;4196;48.926;8.964;2023-02-20T03:35:50;100149.25;;;4.00;100.00
8318;BME280;4196;48.926;8.964;2023-02-20T03:39:02;100148.91;;;3.91;100.00
8318;BME280;4196;48.926;8.964;2023-02-20T03:42:10;100149.47;;;3.83;100.00
8318;BME280;4196;48.926;8.964;2023-02-20T03:45:24;100145.75;;;3.77;100.00
8318;BME280;4196;48.926;8.964;2023-02-20T03:51:27;100159.81;;;3.86;100.00
8318;BME280;4196;48.926;8.964;2023-02-20T03:54:20;100150.69;;;3.93;100.00
8318;BME280;4196;48.926;8.964;2023-02-20T03:57:11;100160.56;;;4.05;100.00
8318;BME280;4196;48.926;8.964;2023-02-20T04:02:50;100100.41;;;3.95;100.00
8318;BME280;4196;48.926;8.964;2023-02-20T04:05:43;100134.19;;;4.28;100.00
8318;BME280;4196;48.926;8.964;2023-02-20T04:08:41;100140.44;;;4.35;100.00
8318;BME280;4196;48.926;8.964;2023-02-20T04:11:42;100137.06;;;4.81;100.00
8318;BME280;4196;48.926;8.964;2023-02-20T04:14:31;100133.69;;;4.82;100.00
8318;BME280;4196;48.926;8.964;2023-02-20T04:17:23;100138.31;;;4.91;100.00
8318;BME280;4196;48.926;8.964;2023-02-20T04:20:11;100136.97;;;4.78;100.00
8318;BME280;4196;48.926;8.964;2023-02-20T04:23:09;100106.47;;;4.41;100.00
8318;BME280;4196;48.926;8.964;2023-02-20T04:26:05;100115.53;;;4.53;100.00
8318;BME280;4196;48.926;8.964;2023-02-20T04:28:56;100128.53;;;4.37;100.00
8318;BME280;4196;48.926;8.964;2023-02-20T04:31:43;100092.94;;;4.01;100.00
8318;BME280;4196;48.926;8.964;2023-02-20T04:34:30;100133.53;;;4.34;100.00
8318;BME280;4196;48.926;8.964;2023-02-20T04:37:19;100119.78;;;4.75;100.00
8318;BME280;4196;48.926;8.964;2023-02-20T04:40:11;100120.44;;;4.26;100.00
8318;BME280;4196;48.926;8.964;2023-02-20T04:42:57;100103.25;;;3.82;100.00
8318;BME280;4196;48.926;8.964;2023-02-20T04:45:44;100136.44;;;3.79;100.00
8318;BME280;4196;48.926;8.964;2023-02-20T04:48:31;100092.03;;;3.38;100.00
8318;BME280;4196;48.926;8.964;2023-02-20T04:51:19;100105.66;;;3.37;100.00
8318;BME280;4196;48.926;8.964;2023-02-20T04:54:06;100123.63;;;3.38;100.00
8318;BME280;4196;48.926;8.964;2023-02-20T04:56:53;100134.22;;;3.27;100.00
8318;BME280;4196;48.926;8.964;2023-02-20T04:59:41;100140.75;;;3.20;100.00
8318;BME280;4196;48.926;8.964;2023-02-20T05:02:28;100127.81;;;2.98;100.00
8318;BME280;4196;48.926;8.964;2023-02-20T05:05:21;100147.69;;;3.03;100.00
8318;BME280;4196;48.926;8.964;2023-02-20T05:08:08;100105.31;;;2.71;100.00
8318;BME280;4196;48.926;8.964;2023-02-20T05:10:55;100143.63;;;2.89;100.00
8318;BME280;4196;48.926;8.964;2023-02-20T05:13:41;100117.88;;;2.66;100.00
8318;BME280;4196;48.926;8.964;2023-02-20T05:16:27;100137.00;;;2.75;100.00
8318;BME280;4196;48.926;8.964;2023-02-20T05:19:14;100142.59;;;2.66;100.00
8318;BME280;4196;48.926;8.964;2023-02-20T05:22:00;100149.16;;;2.61;100.00
8318;BME280;4196;48.926;8.964;2023-02-20T05:25:06;100146.69;;;2.62;100.00
8318;BME280;4196;48.926;8.964;2023-02-20T05:27:52;100147.03;;;2.52;100.00
8318;BME280;4196;48.926;8.964;2023-02-20T05:30:39;100149.19;;;2.43;100.00
8318;BME280;4196;48.926;8.964;2023-02-20T05:33:25;100148.88;;;2.37;100.00
8318;BME280;4196;48.926;8.964;2023-02-20T05:36:12;100136.16;;;2.21;100.00
8318;BME280;4196;48.926;8.964;2023-02-20T05:38:59;100161.09;;;2.25;100.00
8318;BME280;4196;48.926;8.964;2023-02-20T05:41:46;100135.06;;;2.15;100.00
8318;BME280;4196;48.926;8.964;2023-02-20T05:44:34;100120.19;;;2.07;100.00
8318;BME280;4196;48.926;8.964;2023-02-20T05:47:21;100148.00;;;2.18;100.00
8318;BME280;4196;48.926;8.964;2023-02-20T05:50:07;100112.94;;;1.98;100.00
8318;BME280;4196;48.926;8.964;2023-02-20T05:52:53;100092.75;;;1.85;100.00
8318;BME280;4196;48.926;8.964;2023-02-20T05:55:40;100110.22;;;1.95;100.00
8318;BME280;4196;48.926;8.964;2023-02-20T05:58:26;100155.31;;;2.29;100.00
8318;BME280;4196;48.926;8.964;2023-02-20T06:01:18;100127.50;;;1.99;100.00
8318;BME280;4196;48.926;8.964;2023-02-20T06:04:05;100087.22;;;1.59;100.00
8318;BME280;4196;48.926;8.964;2023-02-20T06:06:51;100146.44;;;1.86;100.00
8318;BME280;4196;48.926;8.964;2023-02-20T06:09:42;100154.69;;;1.81;100.00
8318;BME280;4196;48.926;8.964;2023-02-20T06:12:29;100123.69;;;1.57;100.00
8318;BME280;4196;48.926;8.964;2023-02-20T06:15:15;100131.09;;;1.52;100.00
8318;BME280;4196;48.926;8.964;2023-02-20T06:18:02;100145.13;;;1.60;100.00
8318;BME280;4196;48.926;8.964;2023-02-20T06:20:48;100128.88;;;1.42;100.00
8318;BME280;4196;48.926;8.964;2023-02-20T06:23:38;100152.41;;;1.53;100.00
8318;BME280;4196;48.926;8.964;2023-02-20T06:26:25;100109.28;;;1.25;100.00
8318;BME280;4196;48.926;8.964;2023-02-20T06:29:13;100157.41;;;1.67;100.00
8318;BME280;4196;48.926;8.964;2023-02-20T06:32:00;100114.75;;;1.32;100.00
8318;BME280;4196;48.926;8.964;2023-02-20T06:34:47;100163.81;;;1.59;100.00
8318;BME280;4196;48.926;8.964;2023-02-20T06:37:33;100161.03;;;1.55;100.00
8318;BME280;4196;48.926;8.964;2023-02-20T06:40:20;100155.81;;;1.69;100.00
8318;BME280;4196;48.926;8.964;2023-02-20T06:43:06;100185.31;;;1.81;100.00
8318;BME280;4196;48.926;8.964;2023-02-20T06:45:53;100172.00;;;1.70;100.00
8318;BME280;4196;48.926;8.964;2023-02-20T06:48:47;100181.94;;;1.82;100.00
8318;BME280;4196;48.926;8.964;2023-02-20T06:51:34;100161.53;;;1.65;100.00
8318;BME280;4196;48.926;8.964;2023-02-20T06:54:21;100168.22;;;1.80;100.00
8318;BME280;4196;48.926;8.964;2023-02-20T06:57:08;100169.34;;;1.85;100.00
8318;BME280;4196;48.926;8.964;2023-02-20T06:59:54;100180.16;;;1.97;100.00
8318;BME280;4196;48.926;8.964;2023-02-20T07:02:41;100172.81;;;2.03;100.00
8318;BME280;4196;48.926;8.964;2023-02-20T07:05:27;100175.59;;;2.08;100.00
8318;BME280;4196;48.926;8.964;2023-02-20T07:08:14;100178.28;;;2.11;100.00
8318;BME280;4196;48.926;8.964;2023-02-20T07:11:01;100173.19;;;2.11;100.00
8318;BME280;4196;48.926;8.964;2023-02-20T07:13:47;100187.56;;;2.27;100.00
8318;BME280;4196;48.926;8.964;2023-02-20T07:16:34;100148.94;;;2.21;100.00
8318;BME280;4196;48.926;8.964;2023-02-20T07:19:20;100171.53;;;2.47;100.00
8318;BME280;4196;48.926;8.964;2023-02-20T07:22:06;100138.25;;;2.65;100.00
8318;BME280;4196;48.926;8.964;2023-02-20T07:24:53;100172.34;;;2.83;100.00
8318;BME280;4196;48.926;8.964;2023-02-20T07:27:40;100160.22;;;2.79;100.00
8318;BME280;4196;48.926;8.964;2023-02-20T07:30:26;100186.59;;;2.96;100.00
8318;BME280;4196;48.926;8.964;2023-02-20T07:33:14;100191.09;;;3.02;100.00
8318;BME280;4196;48.926;8.964;2023-02-20T07:36:01;100193.22;;;3.10;100.00
8318;BME280;4196;48.926;8.964;2023-02-20T07:38:58;100196.78;;;3.33;100.00
8318;BME280;4196;48.926;8.964;2023-02-20T07:41:45;100186.22;;;3.45;100.00
8318;BME280;4196;48.926;8.964;2023-02-20T07:45:00;100174.81;;;3.77;100.00
8318;BME280;4196;48.926;8.964;2023-02-20T07:47:47;100155.59;;;3.87;100.00
8318;BME280;4196;48.926;8.964;2023-02-20T07:50:34;100183.91;;;4.11;100.00
8318;BME280;4196;48.926;8.964;2023-02-20T07:53:20;100177.59;;;4.24;100.00
8318;BME280;4196;48.926;8.964;2023-02-20T07:56:06;100135.59;;;3.99;100.00
8318;BME280;4196;48.926;8.964;2023-02-20T07:58:53;100138.88;;;4.18;100.00
8318;BME280;4196;48.926;8.964;2023-02-20T08:01:39;100132.38;;;4.26;100.00
8318;BME280;4196;48.926;8.964;2023-02-20T08:04:26;100153.41;;;4.60;100.00
8318;BME280;4196;48.926;8.964;2023-02-20T08:07:13;100131.63;;;4.72;100.00
8318;BME280;4196;48.926;8.964;2023-02-20T08:09:59;100169.63;;;5.04;100.00
8318;BME280;4196;48.926;8.964;2023-02-20T08:12:46;100164.88;;;5.15;100.00
8318;BME280;4196;48.926;8.964;2023-02-20T08:15:33;100143.69;;;5.21;100.00
8318;BME280;4196;48.926;8.964;2023-02-20T08:18:19;100140.63;;;5.31;100.00
8318;BME280;4196;48.926;8.964;2023-02-20T08:21:09;100174.28;;;5.63;100.00
8318;BME280;4196;48.926;8.964;2023-02-20T08:23:55;100136.06;;;5.72;100.00
8318;BME280;4196;48.926;8.964;2023-02-20T08:26:47;100150.34;;;6.15;100.00
8318;BME280;4196;48.926;8.964;2023-02-20T08:29:33;100150.09;;;6.33;100.00
8318;BME280;4196;48.926;8.964;2023-02-20T08:32:20;100112.13;;;6.25;100.00
8318;BME280;4196;48.926;8.964;2023-02-20T08:35:06;100118.28;;;6.58;100.00
8318;BME280;4196;48.926;8.964;2023-02-20T08:37:53;100125.69;;;6.75;100.00
8318;BME280;4196;48.926;8.964;2023-02-20T08:40:39;100127.19;;;6.97;100.00
8318;BME280;4196;48.926;8.964;2023-02-20T08:43:26;100118.59;;;6.97;100.00
8318;BME280;4196;48.926;8.964;2023-02-20T08:46:13;100134.25;;;7.35;100.00
8318;BME280;4196;48.926;8.964;2023-02-20T08:49:01;100084.81;;;7.16;100.00
8318;BME280;4196;48.926;8.964;2023-02-20T08:51:47;100125.41;;;7.57;100.00
8318;BME280;4196;48.926;8.964;2023-02-20T08:54:39;100120.63;;;7.72;100.00
8318;BME280;4196;48.926;8.964;2023-02-20T08:57:25;100100.09;;;7.75;100.00
8318;BME280;4196;48.926;8.964;2023-02-20T09:00:15;100137.47;;;8.27;100.00
8318;BME280;4196;48.926;8.964;2023-02-20T09:03:04;100118.78;;;8.36;100.00
8318;BME280;4196;48.926;8.964;2023-02-20T09:05:52;100084.50;;;8.40;100.00
8318;BME280;4196;48.926;8.964;2023-02-20T09:08:39;100126.13;;;8.94;100.00
8318;BME280;4196;48.926;8.964;2023-02-20T09:11:26;100119.16;;;9.34;97.65
8318;BME280;4196;48.926;8.964;2023-02-20T09:14:12;100115.59;;;9.75;92.88
8318;BME280;4196;48.926;8.964;2023-02-20T09:16:59;100088.13;;;9.81;92.26
8318;BME280;4196;48.926;8.964;2023-02-20T09:19:45;100117.56;;;10.39;92.17
8318;BME280;4196;48.926;8.964;2023-02-20T09:22:31;100116.22;;;10.66;87.67
8318;BME280;4196;48.926;8.964;2023-02-20T09:25:18;100114.00;;;10.92;82.85
8318;BME280;4196;48.926;8.964;2023-02-20T09:28:05;100079.56;;;11.04;84.83
8318;BME280;4196;48.926;8.964;2023-02-20T09:30:51;100090.09;;;11.18;78.78
8318;BME280;4196;48.926;8.964;2023-02-20T09:33:46;100108.63;;;11.50;81.55
8318;BME280;4196;48.926;8.964;2023-02-20T09:36:36;100078.22;;;11.35;79.82
8318;BME280;4196;48.926;8.964;2023-02-20T09:39:22;100096.53;;;11.49;79.80
8318;BME280;4196;48.926;8.964;2023-02-20T09:42:34;100093.06;;;11.50;78.52
8318;BME280;4196;48.926;8.964;2023-02-20T09:45:31;100086.16;;;11.52;79.13
8318;BME280;4196;48.926;8.964;2023-02-20T09:51:32;100082.53;;;11.34;78.85
8318;BME280;4196;48.926;8.964;2023-02-20T09:57:40;100057.66;;;10.77;72.51
8318;BME280;4196;48.926;8.964;2023-02-20T10:00:30;100072.19;;;10.68;73.10
8318;BME280;4196;48.926;8.964;2023-02-20T10:04:05;100055.53;;;10.46;73.61
8318;BME280;4196;48.926;8.964;2023-02-20T10:06:52;100072.88;;;10.53;74.66
8318;BME280;4196;48.926;8.964;2023-02-20T10:09:41;100021.50;;;10.21;75.70
8318;BME280;4196;48.926;8.964;2023-02-20T10:12:33;100071.34;;;10.66;74.40
8318;BME280;4196;48.926;8.964;2023-02-20T10:22:04;100050.13;;;10.96;73.94
8318;BME280;4196;48.926;8.964;2023-02-20T10:25:08;100038.09;;;11.02;72.37
8318;BME280;4196;48.926;8.964;2023-02-20T10:28:09;100021.69;;;11.02;71.83
8318;BME280;4196;48.926;8.964;2023-02-20T10:31:13;100059.16;;;11.31;73.02
8318;BME280;4196;48.926;8.964;2023-02-20T10:34:08;100061.94;;;11.50;71.04
8318;BME280;4196;48.926;8.964;2023-02-20T10:37:07;100039.38;;;11.43;69.75
8318;BME280;4196;48.926;8.964;2023-02-20T10:48:46;100024.03;;;11.64;68.35
8318;BME280;4196;48.926;8.964;2023-02-20T10:51:42;100002.31;;;11.54;67.91
8318;BME280;4196;48.926;8.964;2023-02-20T10:54:37;100042.38;;;11.84;66.95
8318;BME280;4196;48.926;8.964;2023-02-20T10:57:31;100037.97;;;11.77;66.71
8318;BME280;4196;48.926;8.964;2023-02-20T11:00:30;100036.22;;;11.77;66.40
8318;BME280;4196;48.926;8.964;2023-02-20T11:03:33;100033.59;;;11.73;67.53
8318;BME280;4196;48.926;8.964;2023-02-20T11:06:28;100037.22;;;11.87;66.67
8318;BME280;4196;48.926;8.964;2023-02-20T11:09:15;100035.41;;;11.83;66.42
8318;BME280;4196;48.926;8.964;2023-02-20T11:12:02;100013.72;;;11.73;65.47
8318;BME280;4196;48.926;8.964;2023-02-20T11:14:49;100029.41;;;11.85;64.74
8318;BME280;4196;48.926;8.964;2023-02-20T11:17:38;99992.09;;;11.71;65.48
8318;BME280;4196;48.926;8.964;2023-02-20T11:26:31;100005.25;;;11.90;64.62
8318;BME280;4196;48.926;8.964;2023-02-20T11:29:20;99992.19;;;11.82;64.67
8318;BME280;4196;48.926;8.964;2023-02-20T11:41:08;99989.72;;;11.99;63.34
8318;BME280;4196;48.926;8.964;2023-02-20T11:44:23;99988.09;;;12.22;63.81
8318;BME280;4196;48.926;8.964;2023-02-20T11:50:17;99980.44;;;12.38;64.66
8318;BME280;4196;48.926;8.964;2023-02-20T11:53:06;99958.78;;;12.42;64.36
8318;BME280;4196;48.926;8.964;2023-02-20T11:56:13;99962.31;;;12.53;61.88
8318;BME280;4196;48.926;8.964;2023-02-20T12:05:11;99928.56;;;12.70;61.12
8318;BME280;4196;48.926;8.964;2023-02-20T12:07:59;99936.41;;;12.80;62.19
8318;BME280;4196;48.926;8.964;2023-02-20T12:10:47;99913.91;;;12.95;59.20
8318;BME280;4196;48.926;8.964;2023-02-20T12:13:38;99892.25;;;12.93;59.68
8318;BME280;4196;48.926;8.964;2023-02-20T12:22:35;99909.59;;;13.23;56.95
8318;BME280;4196;48.926;8.964;2023-02-20T12:28:41;99899.22;;;13.40;57.06
8318;BME280;4196;48.926;8.964;2023-02-20T12:34:40;99887.94;;;13.51;55.79
8318;BME280;4196;48.926;8.964;2023-02-20T12:43:44;99861.94;;;13.22;53.49
8318;BME280;4196;48.926;8.964;2023-02-20T12:49:37;99873.16;;;13.73;53.82
8318;BME280;4196;48.926;8.964;2023-02-20T12:52:53;99872.25;;;13.87;53.15
8318;BME280;4196;48.926;8.964;2023-02-20T13:02:14;99846.22;;;13.87;51.67
8318;BME280;4196;48.926;8.964;2023-02-20T13:05:05;99828.00;;;13.81;52.33
8318;BME280;4196;48.926;8.964;2023-02-20T13:08:00;99818.44;;;13.86;52.94
8318;BME280;4196;48.926;8.964;2023-02-20T13:11:01;99832.28;;;14.00;52.41
8318;BME280;4196;48.926;8.964;2023-02-20T13:20:16;99799.91;;;14.50;51.04
8318;BME280;4196;48.926;8.964;2023-02-20T13:23:26;99795.53;;;14.49;51.14
8318;BME280;4196;48.926;8.964;2023-02-20T13:29:20;99792.88;;;14.66;50.42
8318;BME280;4196;48.926;8.964;2023-02-20T13:32:29;99783.28;;;14.68;49.97
8318;BME280;4196;48.926;8.964;2023-02-20T13:38:27;99778.00;;;14.72;50.21
8318;BME280;4196;48.926;8.964;2023-02-20T13:41:14;99748.63;;;14.58;50.06
8318;BME280;4196;48.926;8.964;2023-02-20T13:50:27;99742.50;;;14.59;51.05
8318;BME280;4196;48.926;8.964;2023-02-20T13:53:15;99755.47;;;14.65;50.61
8318;BME280;4196;48.926;8.964;2023-02-20T13:56:01;99755.44;;;14.71;49.87
8318;BME280;4196;48.926;8.964;2023-02-20T13:58:49;99752.09;;;14.54;50.63
8318;BME280;4196;48.926;8.964;2023-02-20T14:01:55;99751.94;;;14.74;50.82
8318;BME280;4196;48.926;8.964;2023-02-20T14:04:54;99747.63;;;14.73;52.20
8318;BME280;4196;48.926;8.964;2023-02-20T14:07:44;99725.97;;;14.63;53.10
8318;BME280;4196;48.926;8.964;2023-02-20T14:10:36;99724.38;;;14.44;53.32
8318;BME280;4196;48.926;8.964;2023-02-20T14:13:23;99739.13;;;14.42;53.97
8318;BME280;4196;48.926;8.964;2023-02-20T14:16:36;99711.47;;;14.25;54.15
8318;BME280;4196;48.926;8.964;2023-02-20T14:19:27;99730.50;;;14.34;53.15
8318;BME280;4196;48.926;8.964;2023-02-20T14:28:11;99645.09;;;13.56;53.21
8318;BME280;4196;48.926;8.964;2023-02-20T14:34:15;99688.38;;;13.73;54.50
8318;BME280;4196;48.926;8.964;2023-02-20T14:40:33;99704.81;;;13.75;53.61
8318;BME280;4196;48.926;8.964;2023-02-20T14:43:22;99685.78;;;13.70;53.10
8318;BME280;4196;48.926;8.964;2023-02-20T14:46:45;99716.09;;;13.76;53.57
8318;BME280;4196;48.926;8.964;2023-02-20T14:49:32;99701.41;;;13.64;54.04
8318;BME280;4196;48.926;8.964;2023-02-20T14:52:22;99695.34;;;13.62;53.89
8318;BME280;4196;48.926;8.964;2023-02-20T14:55:15;99717.91;;;13.57;53.84
8318;BME280;4196;48.926;8.964;2023-02-20T14:58:21;99659.94;;;13.29;51.62
8318;BME280;4196;48.926;8.964;2023-02-20T15:04:14;99685.97;;;13.24;51.62
8318;BME280;4196;48.926;8.964;2023-02-20T15:07:05;99663.47;;;12.96;52.36
8318;BME280;4196;48.926;8.964;2023-02-20T15:09:56;99647.06;;;12.78;53.50
8318;BME280;4196;48.926;8.964;2023-02-20T15:12:42;99691.19;;;13.09;53.94
8318;BME280;4196;48.926;8.964;2023-02-20T15:15:34;99666.97;;;12.87;54.20
8318;BME280;4196;48.926;8.964;2023-02-20T15:18:34;99705.03;;;13.06;53.30
8318;BME280;4196;48.926;8.964;2023-02-20T15:21:39;99686.88;;;13.03;53.98
8318;BME280;4196;48.926;8.964;2023-02-20T15:24:34;99685.16;;;12.95;53.74
8318;BME280;4196;48.926;8.964;2023-02-20T15:27:22;99636.69;;;12.66;53.37
8318;BME280;4196;48.926;8.964;2023-02-20T15:30:16;99669.59;;;12.73;55.36
8318;BME280;4196;48.926;8.964;2023-02-20T15:33:07;99673.06;;;12.75;54.63
8318;BME280;4196;48.926;8.964;2023-02-20T15:35:54;99694.72;;;12.85;54.32
8318;BME280;4196;48.926;8.964;2023-02-20T15:38:41;99684.31;;;12.79;54.93
8318;BME280;4196;48.926;8.964;2023-02-20T15:41:27;99689.50;;;12.76;54.65
8318;BME280;4196;48.926;8.964;2023-02-20T15:44:15;99678.28;;;12.68;55.31
8318;BME280;4196;48.926;8.964;2023-02-20T15:47:01;99686.91;;;12.65;56.17
8318;BME280;4196;48.926;8.964;2023-02-20T15:49:47;99651.44;;;12.29;57.57
8318;BME280;4196;48.926;8.964;2023-02-20T15:52:34;99666.16;;;12.47;57.21
8318;BME280;4196;48.926;8.964;2023-02-20T15:55:21;99669.63;;;12.43;58.03
8318;BME280;4196;48.926;8.964;2023-02-20T15:58:35;99661.84;;;12.43;57.89
8318;BME280;4196;48.926;8.964;2023-02-20T16:01:22;99659.25;;;12.30;58.09
8318;BME280;4196;48.926;8.964;2023-02-20T16:04:12;99662.69;;;12.20;58.83
8318;BME280;4196;48.926;8.964;2023-02-20T16:07:01;99627.22;;;11.95;59.16
8318;BME280;4196;48.926;8.964;2023-02-20T16:09:47;99625.47;;;11.94;58.58
8318;BME280;4196;48.926;8.964;2023-02-20T16:12:33;99660.94;;;12.02;59.46
8318;BME280;4196;48.926;8.964;2023-02-20T16:15:20;99639.31;;;11.88;59.67
8318;BME280;4196;48.926;8.964;2023-02-20T16:18:08;99651.38;;;11.80;60.84
8318;BME280;4196;48.926;8.964;2023-02-20T16:20:54;99644.44;;;11.71;59.86
8318;BME280;4196;48.926;8.964;2023-02-20T16:23:41;99641.84;;;11.64;59.96
8318;BME280;4196;48.926;8.964;2023-02-20T16:26:32;99629.69;;;11.55;59.43
8318;BME280;4196;48.926;8.964;2023-02-20T16:29:29;99635.75;;;11.61;58.97
8318;BME280;4196;48.926;8.964;2023-02-20T16:35:11;99653.03;;;11.49;60.23
8318;BME280;4196;48.926;8.964;2023-02-20T16:37:57;99625.28;;;11.23;61.05
8318;BME280;4196;48.926;8.964;2023-02-20T16:40:44;99644.25;;;11.19;61.58
8318;BME280;4196;48.926;8.964;2023-02-20T16:43:31;99613.94;;;10.98;61.92
8318;BME280;4196;48.926;8.964;2023-02-20T16:46:17;99610.38;;;10.82;62.54
8318;BME280;4196;48.926;8.964;2023-02-20T16:49:17;99651.91;;;10.92;63.52
8318;BME280;4196;48.926;8.964;2023-02-20T16:55:30;99642.91;;;10.37;65.17
8318;BME280;4196;48.926;8.964;2023-02-20T16:58:17;99612.66;;;10.27;66.28
8318;BME280;4196;48.926;8.964;2023-02-20T17:01:05;99631.56;;;10.22;66.68
8318;BME280;4196;48.926;8.964;2023-02-20T17:03:51;99604.50;;;9.84;68.06
8318;BME280;4196;48.926;8.964;2023-02-20T17:06:38;99553.88;;;9.18;70.88
8318;BME280;4196;48.926;8.964;2023-02-20T17:09:24;99623.63;;;9.19;74.57
8318;BME280;4196;48.926;8.964;2023-02-20T17:12:26;99636.63;;;9.27;76.37
8318;BME280;4196;48.926;8.964;2023-02-20T17:15:15;99643.78;;;9.47;73.11
8318;BME280;4196;48.926;8.964;2023-02-20T17:18:01;99633.16;;;9.22;74.03
8318;BME280;4196;48.926;8.964;2023-02-20T17:20:51;99630.75;;;8.72;77.80
8318;BME280;4196;48.926;8.964;2023-02-20T17:23:38;99597.94;;;8.62;77.27
8318;BME280;4196;48.926;8.964;2023-02-20T17:26:25;99619.16;;;8.42;79.54
8318;BME280;4196;48.926;8.964;2023-02-20T17:29:11;99606.50;;;8.05;82.74
8318;BME280;4196;48.926;8.964;2023-02-20T17:31:58;99614.78;;;7.85;86.68
8318;BME280;4196;48.926;8.964;2023-02-20T17:34:44;99632.56;;;7.70;90.12
8318;BME280;4196;48.926;8.964;2023-02-20T17:37:31;99621.72;;;7.42;92.36
8318;BME280;4196;48.926;8.964;2023-02-20T17:40:19;99607.47;;;7.16;93.46
8318;BME280;4196;48.926;8.964;2023-02-20T17:43:06;99604.88;;;7.14;92.68